MQT3SW GCLP-EDDM
Flight info
| Callsign | MQT3SW |
|---|---|
| Flight time | 4h 7m |
| Altitude | 34000 |
| Route | VASTO UN858 AKUDA DCT PESAS DCT OSLEP DCT OXACA DCT HIJ DCT CRISA DCT INPAN DCT VTB DCT PALIO DCT SEGRE DCT YAKXU DCT RONNY DCT TOPTU DCT TOU DCT GAI DCT MEN DCT NINUN DCT LATAM DCT ETREK DCT LTP DCT SOPLO DCT OMASI DCT KINNI DCT LAMUR DCT KORED DCT BERSU DCT DITON DCT NUNRI T103 BETOS BETOS1A |
| Aircraft | A320/M-SDE3FGHIRWY/LB1 |
Departure
| Time | 2026-05-04 13:08 |
|---|---|
| Airport | Gran Canaria Airport (GCLP) |
Arrival
| Time | 2026-05-04 17:15 |
|---|---|
| Airport | Munich Airport (EDDM) |
| Time | Latitude | Longitude | Altitude | Speed | Heading |
|---|---|---|---|---|---|
| 2026-05-04 12:34 | 27.93690 | -15.38899 | 85 ft | 0 kts | 291° |
| 2026-05-04 12:56 | 27.93688 | -15.38894 | 85 ft | 2 kts | 290° |
| 2026-05-04 12:56 | 27.93685 | -15.38881 | 88 ft | 2 kts | 291° |
| 2026-05-04 12:56 | 27.93681 | -15.38873 | 86 ft | 1 kts | 277° |
| 2026-05-04 12:56 | 27.93681 | -15.38866 | 87 ft | 1 kts | 310° |
| 2026-05-04 12:57 | 27.93676 | -15.38861 | 89 ft | 1 kts | 240° |
| 2026-05-04 12:57 | 27.93681 | -15.38855 | 85 ft | 1 kts | 304° |
| 2026-05-04 12:57 | 27.93677 | -15.38851 | 89 ft | 1 kts | 329° |
| 2026-05-04 12:57 | 27.93671 | -15.38847 | 89 ft | 1 kts | 252° |
| 2026-05-04 12:58 | 27.93671 | -15.38845 | 89 ft | 0 kts | 225° |
| 2026-05-04 13:01 | 27.93670 | -15.38845 | 89 ft | 1 kts | 223° |
| 2026-05-04 13:02 | 27.93653 | -15.38851 | 84 ft | 2 kts | 194° |
| 2026-05-04 13:02 | 27.93640 | -15.38853 | 87 ft | 1 kts | 185° |
| 2026-05-04 13:02 | 27.93635 | -15.38854 | 88 ft | 1 kts | 185° |
| 2026-05-04 13:02 | 27.93606 | -15.38857 | 86 ft | 8 kts | 185° |
| 2026-05-04 13:03 | 27.93531 | -15.38869 | 88 ft | 11 kts | 189° |
| 2026-05-04 13:03 | 27.93449 | -15.38849 | 83 ft | 16 kts | 134° |
| 2026-05-04 13:03 | 27.93399 | -15.38771 | 71 ft | 14 kts | 161° |
| 2026-05-04 13:03 | 27.93277 | -15.38814 | 72 ft | 22 kts | 200° |
| 2026-05-04 13:04 | 27.93111 | -15.38893 | 70 ft | 28 kts | 201° |
| 2026-05-04 13:04 | 27.92937 | -15.38970 | 81 ft | 26 kts | 202° |
| 2026-05-04 13:04 | 27.92783 | -15.39038 | 85 ft | 21 kts | 202° |
| 2026-05-04 13:04 | 27.92660 | -15.39091 | 91 ft | 17 kts | 200° |
| 2026-05-04 13:05 | 27.92567 | -15.39132 | 93 ft | 13 kts | 201° |
| 2026-05-04 13:05 | 27.92498 | -15.39163 | 96 ft | 9 kts | 202° |
| 2026-05-04 13:05 | 27.92423 | -15.39197 | 95 ft | 14 kts | 201° |
| 2026-05-04 13:05 | 27.92313 | -15.39244 | 99 ft | 20 kts | 201° |
| 2026-05-04 13:06 | 27.92168 | -15.39304 | 97 ft | 24 kts | 191° |
| 2026-05-04 13:06 | 27.92020 | -15.39303 | 93 ft | 21 kts | 177° |
| 2026-05-04 13:06 | 27.91926 | -15.39268 | 90 ft | 13 kts | 121° |
| 2026-05-04 13:06 | 27.91946 | -15.39207 | 85 ft | 3 kts | 21° |
| 2026-05-04 13:07 | 27.91947 | -15.39207 | 85 ft | 0 kts | 21° |
| 2026-05-04 13:07 | 27.92179 | -15.39104 | 83 ft | 72 kts | 21° |
| 2026-05-04 13:07 | 27.92849 | -15.38809 | 60 ft | 132 kts | 21° |
| 2026-05-04 13:07 | 27.93840 | -15.38355 | 184 ft | 165 kts | 22° |
| 2026-05-04 13:08 | 27.94874 | -15.37888 | 972 ft | 161 kts | 21° |
| 2026-05-04 13:08 | 27.95923 | -15.37433 | 1558 ft | 166 kts | 21° |
| 2026-05-04 13:08 | 27.96989 | -15.36975 | 2014 ft | 173 kts | 22° |
| 2026-05-04 13:08 | 27.98204 | -15.36440 | 2114 ft | 200 kts | 22° |
| 2026-05-04 13:09 | 27.99590 | -15.35831 | 2280 ft | 227 kts | 22° |
| 2026-05-04 13:09 | 28.01140 | -15.35163 | 2652 ft | 248 kts | 22° |
| 2026-05-04 13:09 | 28.02783 | -15.34468 | 3351 ft | 255 kts | 21° |
| 2026-05-04 13:09 | 28.04471 | -15.33759 | 3834 ft | 262 kts | 21° |
| 2026-05-04 13:10 | 28.06175 | -15.33032 | 4080 ft | 263 kts | 21° |
| 2026-05-04 13:10 | 28.07888 | -15.32292 | 4318 ft | 265 kts | 21° |
| 2026-05-04 13:10 | 28.09614 | -15.31541 | 4580 ft | 267 kts | 21° |
| 2026-05-04 13:10 | 28.11353 | -15.30783 | 4835 ft | 269 kts | 20° |
| 2026-05-04 13:11 | 28.13103 | -15.30019 | 5083 ft | 270 kts | 20° |
| 2026-05-04 13:11 | 28.14885 | -15.29319 | 5326 ft | 272 kts | 14° |
| 2026-05-04 13:11 | 28.16731 | -15.28761 | 5913 ft | 276 kts | 13° |
| 2026-05-04 13:11 | 28.18611 | -15.28229 | 6657 ft | 280 kts | 12° |
| 2026-05-04 13:12 | 28.20512 | -15.27678 | 7346 ft | 285 kts | 17° |
| 2026-05-04 13:12 | 28.22295 | -15.26635 | 8006 ft | 292 kts | 30° |
| 2026-05-04 13:12 | 28.24032 | -15.25395 | 8677 ft | 297 kts | 30° |
| 2026-05-04 13:12 | 28.25794 | -15.24126 | 9347 ft | 303 kts | 29° |
| 2026-05-04 13:13 | 28.27587 | -15.22830 | 10005 ft | 308 kts | 29° |
| 2026-05-04 13:13 | 28.29404 | -15.21515 | 10382 ft | 324 kts | 29° |
| 2026-05-04 13:13 | 28.31374 | -15.20095 | 10530 ft | 347 kts | 29° |
| 2026-05-04 13:13 | 28.33453 | -15.18593 | 10905 ft | 359 kts | 29° |
| 2026-05-04 13:14 | 28.35577 | -15.17056 | 11479 ft | 365 kts | 29° |
| 2026-05-04 13:14 | 28.37728 | -15.15498 | 12119 ft | 369 kts | 29° |
| 2026-05-04 13:14 | 28.39904 | -15.13920 | 12750 ft | 373 kts | 28° |
| 2026-05-04 13:14 | 28.42103 | -15.12325 | 13380 ft | 377 kts | 28° |
| 2026-05-04 13:15 | 28.44327 | -15.10709 | 13979 ft | 381 kts | 28° |
| 2026-05-04 13:15 | 28.46570 | -15.09080 | 14520 ft | 385 kts | 28° |
| 2026-05-04 13:15 | 28.48836 | -15.07437 | 15072 ft | 388 kts | 28° |
| 2026-05-04 13:15 | 28.51122 | -15.05780 | 15612 ft | 391 kts | 28° |
| 2026-05-04 13:16 | 28.53427 | -15.04109 | 16163 ft | 395 kts | 28° |
| 2026-05-04 13:16 | 28.55754 | -15.02419 | 16700 ft | 398 kts | 28° |
| 2026-05-04 13:16 | 28.57336 | -15.01268 | 17060 ft | 401 kts | 28° |
| 2026-05-04 13:16 | 28.60462 | -14.98993 | 17760 ft | 405 kts | 28° |
| 2026-05-04 13:17 | 28.62848 | -14.97256 | 18290 ft | 409 kts | 28° |
| 2026-05-04 13:17 | 28.64470 | -14.96076 | 18599 ft | 411 kts | 28° |
| 2026-05-04 13:17 | 28.66890 | -14.94315 | 19053 ft | 414 kts | 28° |
| 2026-05-04 13:17 | 28.69329 | -14.92536 | 19497 ft | 418 kts | 28° |
| 2026-05-04 13:18 | 28.71787 | -14.90742 | 19946 ft | 421 kts | 28° |
| 2026-05-04 13:18 | 28.74268 | -14.88934 | 20400 ft | 425 kts | 28° |
| 2026-05-04 13:18 | 28.76764 | -14.87118 | 20849 ft | 428 kts | 28° |
| 2026-05-04 13:18 | 28.79286 | -14.85279 | 21297 ft | 432 kts | 28° |
| 2026-05-04 13:19 | 28.81822 | -14.83422 | 21743 ft | 435 kts | 28° |
| 2026-05-04 13:19 | 28.84347 | -14.81572 | 22176 ft | 438 kts | 28° |
| 2026-05-04 13:19 | 28.86957 | -14.79662 | 22611 ft | 442 kts | 28° |
| 2026-05-04 13:19 | 28.89554 | -14.77762 | 23026 ft | 445 kts | 28° |
| 2026-05-04 13:20 | 28.92172 | -14.75845 | 23442 ft | 449 kts | 28° |
| 2026-05-04 13:20 | 28.94806 | -14.73917 | 23817 ft | 452 kts | 28° |
| 2026-05-04 13:20 | 28.97458 | -14.71972 | 24152 ft | 455 kts | 28° |
| 2026-05-04 13:20 | 29.00129 | -14.70009 | 24478 ft | 458 kts | 28° |
| 2026-05-04 13:21 | 29.02814 | -14.68034 | 24795 ft | 460 kts | 28° |
| 2026-05-04 13:21 | 29.05516 | -14.66049 | 25116 ft | 463 kts | 28° |
| 2026-05-04 13:21 | 29.08231 | -14.64055 | 25433 ft | 465 kts | 28° |
| 2026-05-04 13:21 | 29.10924 | -14.62072 | 25735 ft | 468 kts | 28° |
| 2026-05-04 13:22 | 29.13666 | -14.60052 | 26038 ft | 470 kts | 28° |
| 2026-05-04 13:22 | 29.16422 | -14.58025 | 26336 ft | 473 kts | 28° |
| 2026-05-04 13:22 | 29.19234 | -14.55959 | 26636 ft | 475 kts | 28° |
| 2026-05-04 13:22 | 29.21986 | -14.53933 | 26923 ft | 478 kts | 28° |
| 2026-05-04 13:23 | 29.24784 | -14.51867 | 27210 ft | 480 kts | 28° |
| 2026-05-04 13:23 | 29.27599 | -14.49785 | 27499 ft | 482 kts | 28° |
| 2026-05-04 13:23 | 29.30423 | -14.47695 | 27780 ft | 484 kts | 28° |
| 2026-05-04 13:23 | 29.33258 | -14.45597 | 28060 ft | 487 kts | 28° |
| 2026-05-04 13:24 | 29.36113 | -14.43486 | 28340 ft | 489 kts | 28° |
| 2026-05-04 13:24 | 29.38974 | -14.41373 | 28604 ft | 491 kts | 28° |
| 2026-05-04 13:24 | 29.41850 | -14.39245 | 28868 ft | 493 kts | 28° |
| 2026-05-04 13:25 | 29.47631 | -14.34955 | 29383 ft | 497 kts | 28° |
| 2026-05-04 13:25 | 29.50537 | -14.32794 | 29628 ft | 499 kts | 28° |
| 2026-05-04 13:25 | 29.53454 | -14.30621 | 29871 ft | 501 kts | 28° |
| 2026-05-04 13:25 | 29.56378 | -14.28442 | 30109 ft | 502 kts | 28° |
| 2026-05-04 13:26 | 29.59315 | -14.26254 | 30314 ft | 504 kts | 28° |
| 2026-05-04 13:26 | 29.62264 | -14.24060 | 30496 ft | 505 kts | 28° |
| 2026-05-04 13:26 | 29.65220 | -14.21864 | 30706 ft | 506 kts | 27° |
| 2026-05-04 13:26 | 29.68175 | -14.19666 | 30964 ft | 506 kts | 27° |
| 2026-05-04 13:27 | 29.71129 | -14.17462 | 31213 ft | 506 kts | 27° |
| 2026-05-04 13:27 | 29.74078 | -14.15252 | 31454 ft | 506 kts | 27° |
| 2026-05-04 13:27 | 29.77026 | -14.13040 | 31690 ft | 506 kts | 27° |
| 2026-05-04 13:27 | 29.79980 | -14.10826 | 31913 ft | 507 kts | 27° |
| 2026-05-04 13:28 | 29.82937 | -14.08615 | 32150 ft | 507 kts | 27° |
| 2026-05-04 13:28 | 29.85895 | -14.06405 | 32386 ft | 507 kts | 27° |
| 2026-05-04 13:28 | 29.88856 | -14.04191 | 32617 ft | 507 kts | 27° |
| 2026-05-04 13:28 | 29.91819 | -14.01970 | 32847 ft | 508 kts | 27° |
| 2026-05-04 13:29 | 29.94779 | -13.99747 | 33078 ft | 508 kts | 27° |
| 2026-05-04 13:29 | 29.97743 | -13.97520 | 33312 ft | 508 kts | 27° |
| 2026-05-04 13:29 | 30.00707 | -13.95293 | 33546 ft | 509 kts | 27° |
| 2026-05-04 13:29 | 30.03671 | -13.93064 | 33767 ft | 509 kts | 27° |
| 2026-05-04 13:30 | 30.06634 | -13.90830 | 33995 ft | 509 kts | 27° |
| 2026-05-04 13:30 | 30.09601 | -13.88596 | 34097 ft | 508 kts | 27° |
| 2026-05-04 13:30 | 30.15486 | -13.84163 | 34121 ft | 503 kts | 27° |
| 2026-05-04 13:31 | 30.21342 | -13.79737 | 34123 ft | 503 kts | 27° |
| 2026-05-04 13:31 | 30.27191 | -13.75302 | 34121 ft | 502 kts | 27° |
| 2026-05-04 13:32 | 30.33037 | -13.70878 | 34122 ft | 502 kts | 26° |
| 2026-05-04 13:32 | 30.38878 | -13.66455 | 34124 ft | 501 kts | 27° |
| 2026-05-04 13:33 | 30.44713 | -13.62024 | 34128 ft | 501 kts | 27° |
| 2026-05-04 13:33 | 30.50536 | -13.57592 | 34132 ft | 500 kts | 27° |
| 2026-05-04 13:34 | 30.56319 | -13.53093 | 34135 ft | 501 kts | 28° |
| 2026-05-04 13:34 | 30.62051 | -13.48489 | 34136 ft | 501 kts | 28° |
| 2026-05-04 13:35 | 30.70641 | -13.41584 | 34131 ft | 500 kts | 28° |
| 2026-05-04 13:36 | 30.76369 | -13.37021 | 34136 ft | 499 kts | 28° |
| 2026-05-04 13:36 | 30.82085 | -13.32457 | 34137 ft | 498 kts | 28° |
| 2026-05-04 13:37 | 30.87787 | -13.27884 | 34137 ft | 497 kts | 28° |
| 2026-05-04 13:37 | 30.93482 | -13.23317 | 34141 ft | 496 kts | 28° |
| 2026-05-04 13:38 | 30.99176 | -13.18791 | 34143 ft | 495 kts | 28° |
| 2026-05-04 13:38 | 31.04868 | -13.14277 | 34143 ft | 494 kts | 28° |
| 2026-05-04 13:39 | 31.10544 | -13.09764 | 34144 ft | 493 kts | 28° |
| 2026-05-04 13:39 | 31.16162 | -13.05281 | 34149 ft | 492 kts | 28° |
| 2026-05-04 13:40 | 31.21808 | -13.00776 | 34149 ft | 491 kts | 28° |
| 2026-05-04 13:40 | 31.27438 | -12.96265 | 34143 ft | 490 kts | 28° |
| 2026-05-04 13:41 | 31.33052 | -12.91749 | 34142 ft | 489 kts | 28° |
| 2026-05-04 13:41 | 31.38661 | -12.87255 | 34139 ft | 488 kts | 28° |
| 2026-05-04 13:42 | 31.47065 | -12.80516 | 34137 ft | 487 kts | 29° |
| 2026-05-04 13:42 | 31.52648 | -12.76013 | 34135 ft | 487 kts | 29° |
| 2026-05-04 13:43 | 31.58224 | -12.71512 | 34138 ft | 486 kts | 29° |
| 2026-05-04 13:43 | 31.63789 | -12.67013 | 34140 ft | 486 kts | 29° |
| 2026-05-04 13:44 | 31.69350 | -12.62516 | 34135 ft | 485 kts | 30° |
| 2026-05-04 13:44 | 31.74900 | -12.58017 | 34136 ft | 484 kts | 30° |
| 2026-05-04 13:45 | 31.80444 | -12.53523 | 34138 ft | 484 kts | 30° |
| 2026-05-04 13:45 | 31.85973 | -12.49023 | 34136 ft | 483 kts | 30° |
| 2026-05-04 13:46 | 31.91503 | -12.44526 | 34137 ft | 483 kts | 30° |
| 2026-05-04 13:46 | 31.97020 | -12.40032 | 34137 ft | 482 kts | 30° |
| 2026-05-04 13:47 | 32.02540 | -12.35543 | 34137 ft | 482 kts | 30° |
| 2026-05-04 13:47 | 32.08048 | -12.31060 | 34144 ft | 481 kts | 30° |
| 2026-05-04 13:48 | 32.13557 | -12.26565 | 34144 ft | 481 kts | 30° |
| 2026-05-04 13:48 | 32.19055 | -12.22072 | 34135 ft | 480 kts | 30° |
| 2026-05-04 13:49 | 32.24549 | -12.17583 | 34141 ft | 480 kts | 30° |
| 2026-05-04 13:49 | 32.30029 | -12.13096 | 34135 ft | 479 kts | 30° |
| 2026-05-04 13:50 | 32.35511 | -12.08606 | 34135 ft | 479 kts | 31° |
| 2026-05-04 13:50 | 32.40987 | -12.04113 | 34139 ft | 479 kts | 31° |
| 2026-05-04 13:51 | 32.46424 | -11.99638 | 34141 ft | 479 kts | 31° |
| 2026-05-04 13:51 | 32.51891 | -11.95126 | 34147 ft | 479 kts | 31° |
| 2026-05-04 13:52 | 32.60088 | -11.88359 | 34145 ft | 479 kts | 31° |
| 2026-05-04 13:53 | 32.65548 | -11.83840 | 34142 ft | 478 kts | 31° |
| 2026-05-04 13:53 | 32.71002 | -11.79319 | 34144 ft | 478 kts | 31° |
| 2026-05-04 13:54 | 32.79179 | -11.72536 | 34146 ft | 478 kts | 31° |
| 2026-05-04 13:55 | 32.87351 | -11.65744 | 34133 ft | 478 kts | 31° |
| 2026-05-04 13:55 | 32.95517 | -11.58926 | 34136 ft | 478 kts | 31° |
| 2026-05-04 13:56 | 33.00958 | -11.54383 | 34140 ft | 478 kts | 31° |
| 2026-05-04 13:57 | 33.09122 | -11.47560 | 34137 ft | 478 kts | 31° |
| 2026-05-04 13:58 | 33.19984 | -11.38428 | 34145 ft | 477 kts | 31° |
| 2026-05-04 13:58 | 33.28108 | -11.31537 | 34138 ft | 478 kts | 31° |
| 2026-05-04 13:59 | 33.33519 | -11.26935 | 34140 ft | 477 kts | 31° |
| 2026-05-04 14:00 | 33.40720 | -11.20800 | 34134 ft | 477 kts | 31° |
| 2026-05-04 14:00 | 33.48836 | -11.13897 | 34138 ft | 477 kts | 31° |
| 2026-05-04 14:01 | 33.54241 | -11.09281 | 34133 ft | 477 kts | 31° |
| 2026-05-04 14:02 | 33.62334 | -11.02349 | 34137 ft | 477 kts | 31° |
| 2026-05-04 14:02 | 33.67729 | -10.97717 | 34139 ft | 477 kts | 31° |
| 2026-05-04 14:03 | 33.73088 | -10.93112 | 34139 ft | 477 kts | 31° |
| 2026-05-04 14:03 | 33.78484 | -10.88466 | 34136 ft | 477 kts | 31° |
| 2026-05-04 14:04 | 33.86579 | -10.81491 | 34145 ft | 477 kts | 31° |
| 2026-05-04 14:04 | 33.91970 | -10.76835 | 34141 ft | 477 kts | 31° |
| 2026-05-04 14:05 | 34.00052 | -10.69840 | 34143 ft | 477 kts | 30° |
| 2026-05-04 14:06 | 34.05439 | -10.65169 | 34146 ft | 477 kts | 30° |
| 2026-05-04 14:06 | 34.10823 | -10.60489 | 34144 ft | 477 kts | 30° |
| 2026-05-04 14:07 | 34.16207 | -10.55803 | 34138 ft | 477 kts | 30° |
| 2026-05-04 14:07 | 34.21587 | -10.51113 | 34140 ft | 477 kts | 30° |
| 2026-05-04 14:08 | 34.26965 | -10.46412 | 34145 ft | 477 kts | 30° |
| 2026-05-04 14:08 | 34.32348 | -10.41708 | 34146 ft | 477 kts | 30° |
| 2026-05-04 14:09 | 34.40411 | -10.34645 | 34143 ft | 477 kts | 30° |
| 2026-05-04 14:10 | 34.48472 | -10.27566 | 34140 ft | 477 kts | 30° |
| 2026-05-04 14:10 | 34.53839 | -10.22843 | 34136 ft | 477 kts | 30° |
| 2026-05-04 14:11 | 34.59206 | -10.18119 | 34129 ft | 477 kts | 30° |
| 2026-05-04 14:11 | 34.67261 | -10.11015 | 34131 ft | 477 kts | 30° |
| 2026-05-04 14:12 | 34.72637 | -10.06283 | 34129 ft | 477 kts | 30° |
| 2026-05-04 14:13 | 34.80709 | -9.99191 | 34135 ft | 477 kts | 30° |
| 2026-05-04 14:13 | 34.86085 | -9.94444 | 34140 ft | 477 kts | 29° |
| 2026-05-04 14:14 | 34.91457 | -9.89688 | 34137 ft | 477 kts | 29° |
| 2026-05-04 14:14 | 34.99505 | -9.82556 | 34139 ft | 477 kts | 29° |
| 2026-05-04 14:15 | 35.10231 | -9.73025 | 34138 ft | 477 kts | 29° |
| 2026-05-04 14:16 | 35.18261 | -9.65865 | 34137 ft | 476 kts | 29° |
| 2026-05-04 14:17 | 35.26285 | -9.58691 | 34132 ft | 476 kts | 29° |
| 2026-05-04 14:18 | 35.34306 | -9.51510 | 34131 ft | 476 kts | 29° |
| 2026-05-04 14:19 | 35.44990 | -9.41905 | 34130 ft | 476 kts | 29° |
| 2026-05-04 14:19 | 35.50294 | -9.37124 | 34127 ft | 476 kts | 29° |
| 2026-05-04 14:20 | 35.55636 | -9.32312 | 34123 ft | 477 kts | 29° |
| 2026-05-04 14:20 | 35.60979 | -9.27476 | 34119 ft | 477 kts | 29° |
| 2026-05-04 14:21 | 35.68995 | -9.20204 | 34122 ft | 478 kts | 29° |
| 2026-05-04 14:21 | 35.74344 | -9.15355 | 34129 ft | 478 kts | 29° |
| 2026-05-04 14:22 | 35.79695 | -9.10494 | 34131 ft | 478 kts | 29° |
| 2026-05-04 14:22 | 35.85048 | -9.05623 | 34135 ft | 478 kts | 29° |
| 2026-05-04 14:23 | 35.93074 | -8.98296 | 34136 ft | 478 kts | 29° |
| 2026-05-04 14:24 | 35.98145 | -8.92903 | 34135 ft | 489 kts | 43° |
| 2026-05-04 14:24 | 36.02584 | -8.86529 | 34137 ft | 490 kts | 44° |
| 2026-05-04 14:25 | 36.07023 | -8.80151 | 34137 ft | 489 kts | 44° |
| 2026-05-04 14:25 | 36.13676 | -8.70589 | 34130 ft | 489 kts | 44° |
| 2026-05-04 14:26 | 36.18110 | -8.64210 | 34128 ft | 488 kts | 44° |
| 2026-05-04 14:26 | 36.22529 | -8.57822 | 34129 ft | 488 kts | 44° |
| 2026-05-04 14:27 | 36.26940 | -8.51420 | 34125 ft | 488 kts | 44° |
| 2026-05-04 14:27 | 36.31352 | -8.45027 | 34123 ft | 488 kts | 44° |
| 2026-05-04 14:28 | 36.35760 | -8.38635 | 34118 ft | 488 kts | 44° |
| 2026-05-04 14:28 | 36.40157 | -8.32226 | 34119 ft | 487 kts | 44° |
| 2026-05-04 14:29 | 36.48933 | -8.19405 | 34110 ft | 487 kts | 45° |
| 2026-05-04 14:30 | 36.53311 | -8.12988 | 34104 ft | 486 kts | 45° |
| 2026-05-04 14:31 | 36.59869 | -8.03361 | 34088 ft | 486 kts | 45° |
| 2026-05-04 14:32 | 36.68602 | -7.90501 | 34084 ft | 486 kts | 45° |
| 2026-05-04 14:32 | 36.72959 | -7.84063 | 34079 ft | 486 kts | 45° |
| 2026-05-04 14:33 | 36.77319 | -7.77614 | 34072 ft | 486 kts | 45° |
| 2026-05-04 14:33 | 36.81671 | -7.71157 | 34063 ft | 486 kts | 45° |
| 2026-05-04 14:34 | 36.86024 | -7.64689 | 34079 ft | 486 kts | 45° |
| 2026-05-04 14:34 | 36.90376 | -7.58224 | 34065 ft | 486 kts | 45° |
| 2026-05-04 14:35 | 36.94720 | -7.51740 | 34062 ft | 487 kts | 45° |
| 2026-05-04 14:35 | 36.99062 | -7.45240 | 34062 ft | 487 kts | 45° |
| 2026-05-04 14:36 | 37.03399 | -7.38740 | 34067 ft | 487 kts | 45° |
| 2026-05-04 14:36 | 37.07751 | -7.32248 | 34058 ft | 487 kts | 45° |
| 2026-05-04 14:37 | 37.12126 | -7.25765 | 34065 ft | 487 kts | 45° |
| 2026-05-04 14:37 | 37.16497 | -7.19271 | 34057 ft | 487 kts | 45° |
| 2026-05-04 14:38 | 37.20857 | -7.12763 | 34056 ft | 488 kts | 45° |
| 2026-05-04 14:38 | 37.25215 | -7.06232 | 34054 ft | 488 kts | 45° |
| 2026-05-04 14:39 | 37.29575 | -6.99703 | 34056 ft | 488 kts | 45° |
| 2026-05-04 14:39 | 37.33928 | -6.93167 | 34058 ft | 488 kts | 46° |
| 2026-05-04 14:40 | 37.40440 | -6.83351 | 34050 ft | 487 kts | 46° |
| 2026-05-04 14:40 | 37.44773 | -6.76806 | 34047 ft | 487 kts | 46° |
| 2026-05-04 14:41 | 37.49078 | -6.70306 | 34038 ft | 486 kts | 46° |
| 2026-05-04 14:42 | 37.57020 | -6.58258 | 34027 ft | 486 kts | 46° |
| 2026-05-04 14:42 | 37.62038 | -6.50620 | 34024 ft | 487 kts | 46° |
| 2026-05-04 14:43 | 37.66349 | -6.44032 | 34022 ft | 487 kts | 46° |
| 2026-05-04 14:43 | 37.70662 | -6.37444 | 34025 ft | 487 kts | 46° |
| 2026-05-04 14:44 | 37.74277 | -6.31915 | 34020 ft | 487 kts | 46° |
| 2026-05-04 14:44 | 37.78592 | -6.25309 | 34023 ft | 488 kts | 46° |
| 2026-05-04 14:45 | 37.82902 | -6.18679 | 34023 ft | 488 kts | 46° |
| 2026-05-04 14:45 | 37.87209 | -6.12043 | 34023 ft | 488 kts | 46° |
| 2026-05-04 14:46 | 37.91509 | -6.05397 | 34013 ft | 488 kts | 47° |
| 2026-05-04 14:46 | 37.95803 | -5.98744 | 34010 ft | 488 kts | 47° |
| 2026-05-04 14:47 | 38.00052 | -5.92029 | 34005 ft | 489 kts | 48° |
| 2026-05-04 14:47 | 38.04266 | -5.85259 | 34004 ft | 489 kts | 48° |
| 2026-05-04 14:48 | 38.08450 | -5.78535 | 34008 ft | 489 kts | 48° |
| 2026-05-04 14:48 | 38.12701 | -5.71724 | 34008 ft | 489 kts | 48° |
| 2026-05-04 14:49 | 38.16922 | -5.64947 | 34013 ft | 489 kts | 48° |
| 2026-05-04 14:49 | 38.21140 | -5.58158 | 34013 ft | 489 kts | 48° |
| 2026-05-04 14:50 | 38.25358 | -5.51369 | 34013 ft | 489 kts | 48° |
| 2026-05-04 14:50 | 38.29569 | -5.44565 | 34005 ft | 489 kts | 48° |
| 2026-05-04 14:51 | 38.33768 | -5.37743 | 33997 ft | 489 kts | 49° |
| 2026-05-04 14:51 | 38.37971 | -5.30916 | 33997 ft | 490 kts | 49° |
| 2026-05-04 14:52 | 38.42176 | -5.24077 | 33993 ft | 490 kts | 49° |
| 2026-05-04 14:52 | 38.46381 | -5.17226 | 33993 ft | 491 kts | 49° |
| 2026-05-04 14:53 | 38.50609 | -5.10388 | 33989 ft | 489 kts | 45° |
| 2026-05-04 14:53 | 38.55390 | -5.04245 | 33996 ft | 487 kts | 40° |
| 2026-05-04 14:54 | 38.60234 | -4.98179 | 34000 ft | 488 kts | 40° |
| 2026-05-04 14:54 | 38.65076 | -4.92104 | 34001 ft | 488 kts | 40° |
| 2026-05-04 14:55 | 38.69913 | -4.86009 | 33999 ft | 488 kts | 40° |
| 2026-05-04 14:55 | 38.74748 | -4.79904 | 34003 ft | 488 kts | 41° |
| 2026-05-04 14:56 | 38.79579 | -4.73795 | 33999 ft | 488 kts | 41° |
| 2026-05-04 14:56 | 38.84411 | -4.67668 | 33987 ft | 489 kts | 41° |
| 2026-05-04 14:57 | 38.89248 | -4.61534 | 33992 ft | 489 kts | 41° |
| 2026-05-04 14:57 | 38.94078 | -4.55385 | 33989 ft | 489 kts | 41° |
| 2026-05-04 14:58 | 38.98901 | -4.49223 | 33991 ft | 489 kts | 41° |
| 2026-05-04 14:58 | 39.03724 | -4.43053 | 33992 ft | 489 kts | 41° |
| 2026-05-04 14:59 | 39.08552 | -4.36869 | 33993 ft | 489 kts | 41° |
| 2026-05-04 15:00 | 39.15785 | -4.27582 | 33988 ft | 490 kts | 41° |
| 2026-05-04 15:00 | 39.20612 | -4.21379 | 33985 ft | 490 kts | 41° |
| 2026-05-04 15:01 | 39.27841 | -4.12044 | 33979 ft | 490 kts | 42° |
| 2026-05-04 15:01 | 39.32659 | -4.05807 | 33976 ft | 491 kts | 42° |
| 2026-05-04 15:02 | 39.37481 | -3.99565 | 33973 ft | 491 kts | 42° |
| 2026-05-04 15:02 | 39.42303 | -3.93310 | 33968 ft | 491 kts | 42° |
| 2026-05-04 15:03 | 39.47118 | -3.87030 | 33961 ft | 491 kts | 42° |
| 2026-05-04 15:03 | 39.51929 | -3.80745 | 33963 ft | 491 kts | 42° |
| 2026-05-04 15:04 | 39.56656 | -3.74559 | 33965 ft | 491 kts | 42° |
| 2026-05-04 15:04 | 39.61463 | -3.68257 | 33965 ft | 491 kts | 42° |
| 2026-05-04 15:05 | 39.66268 | -3.61950 | 33957 ft | 491 kts | 42° |
| 2026-05-04 15:05 | 39.71076 | -3.55646 | 33962 ft | 491 kts | 42° |
| 2026-05-04 15:06 | 39.75841 | -3.49369 | 33965 ft | 491 kts | 43° |
| 2026-05-04 15:07 | 39.83892 | -3.41417 | 33966 ft | 483 kts | 29° |
| 2026-05-04 15:07 | 39.89511 | -3.36613 | 33965 ft | 483 kts | 29° |
| 2026-05-04 15:08 | 39.95120 | -3.31792 | 33963 ft | 483 kts | 29° |
| 2026-05-04 15:08 | 40.00715 | -3.26958 | 33966 ft | 482 kts | 29° |
| 2026-05-04 15:09 | 40.06308 | -3.22124 | 33964 ft | 482 kts | 29° |
| 2026-05-04 15:09 | 40.11894 | -3.17300 | 33959 ft | 481 kts | 29° |
| 2026-05-04 15:10 | 40.20258 | -3.10044 | 33948 ft | 481 kts | 29° |
| 2026-05-04 15:11 | 40.28615 | -3.02763 | 33945 ft | 481 kts | 29° |
| 2026-05-04 15:11 | 40.34179 | -2.97900 | 33950 ft | 481 kts | 29° |
| 2026-05-04 15:12 | 40.39745 | -2.93036 | 33948 ft | 481 kts | 29° |
| 2026-05-04 15:12 | 40.45308 | -2.88158 | 33947 ft | 481 kts | 29° |
| 2026-05-04 15:13 | 40.50871 | -2.83268 | 33948 ft | 481 kts | 29° |
| 2026-05-04 15:13 | 40.56434 | -2.78376 | 33952 ft | 481 kts | 29° |
| 2026-05-04 15:14 | 40.61995 | -2.73477 | 33950 ft | 481 kts | 29° |
| 2026-05-04 15:14 | 40.67552 | -2.68565 | 33955 ft | 481 kts | 29° |
| 2026-05-04 15:15 | 40.73109 | -2.63637 | 33962 ft | 481 kts | 30° |
| 2026-05-04 15:15 | 40.78620 | -2.58745 | 33967 ft | 481 kts | 30° |
| 2026-05-04 15:16 | 40.86940 | -2.51346 | 33975 ft | 480 kts | 30° |
| 2026-05-04 15:17 | 40.95243 | -2.43959 | 33973 ft | 479 kts | 30° |
| 2026-05-04 15:17 | 41.03505 | -2.36500 | 33969 ft | 480 kts | 33° |
| 2026-05-04 15:18 | 41.08821 | -2.31031 | 33966 ft | 481 kts | 36° |
| 2026-05-04 15:19 | 41.16506 | -2.22557 | 33960 ft | 481 kts | 37° |
| 2026-05-04 15:19 | 41.24308 | -2.14181 | 33958 ft | 481 kts | 36° |
| 2026-05-04 15:20 | 41.29536 | -2.08640 | 33957 ft | 481 kts | 36° |
| 2026-05-04 15:20 | 41.34748 | -2.03078 | 33955 ft | 480 kts | 37° |
| 2026-05-04 15:21 | 41.39951 | -1.97488 | 33951 ft | 480 kts | 37° |
| 2026-05-04 15:22 | 41.47744 | -1.89103 | 33948 ft | 480 kts | 37° |
| 2026-05-04 15:22 | 41.55524 | -1.80708 | 33949 ft | 479 kts | 37° |
| 2026-05-04 15:23 | 41.60702 | -1.75097 | 33948 ft | 479 kts | 37° |
| 2026-05-04 15:23 | 41.65870 | -1.69482 | 33950 ft | 478 kts | 37° |
| 2026-05-04 15:24 | 41.75322 | -1.59218 | 33952 ft | 478 kts | 38° |
| 2026-05-04 15:25 | 41.80477 | -1.53594 | 33952 ft | 477 kts | 38° |
| 2026-05-04 15:26 | 41.88192 | -1.45141 | 33955 ft | 477 kts | 38° |
| 2026-05-04 15:26 | 41.95905 | -1.36681 | 33952 ft | 477 kts | 39° |
| 2026-05-04 15:27 | 42.03617 | -1.28189 | 33950 ft | 478 kts | 39° |
| 2026-05-04 15:28 | 42.11324 | -1.19676 | 33945 ft | 478 kts | 39° |
| 2026-05-04 15:29 | 42.19035 | -1.11114 | 33945 ft | 479 kts | 39° |
| 2026-05-04 15:30 | 42.37027 | -0.91073 | 33932 ft | 480 kts | 40° |
| 2026-05-04 15:31 | 42.44384 | -0.81908 | 33925 ft | 479 kts | 54° |
| 2026-05-04 15:32 | 42.54559 | -0.64021 | 33921 ft | 480 kts | 55° |
| 2026-05-04 15:34 | 42.64722 | -0.46019 | 33929 ft | 481 kts | 55° |
| 2026-05-04 15:34 | 42.70816 | -0.35178 | 33936 ft | 481 kts | 55° |
| 2026-05-04 15:35 | 42.76900 | -0.24319 | 33943 ft | 481 kts | 56° |
| 2026-05-04 15:36 | 42.83055 | -0.13510 | 33941 ft | 482 kts | 53° |
| 2026-05-04 15:36 | 42.87347 | -0.06483 | 33955 ft | 483 kts | 52° |
| 2026-05-04 15:37 | 42.91650 | 0.00531 | 33964 ft | 482 kts | 53° |
| 2026-05-04 15:37 | 42.95898 | 0.07608 | 33959 ft | 481 kts | 53° |
| 2026-05-04 15:38 | 43.00115 | 0.14709 | 33965 ft | 482 kts | 54° |
| 2026-05-04 15:38 | 43.04342 | 0.21825 | 33970 ft | 482 kts | 53° |
| 2026-05-04 15:39 | 43.08575 | 0.28948 | 33965 ft | 482 kts | 54° |
| 2026-05-04 15:40 | 43.14886 | 0.39602 | 33957 ft | 482 kts | 54° |
| 2026-05-04 15:40 | 43.19107 | 0.46747 | 33945 ft | 482 kts | 54° |
| 2026-05-04 15:41 | 43.23322 | 0.53902 | 33943 ft | 482 kts | 54° |
| 2026-05-04 15:41 | 43.27535 | 0.61070 | 33943 ft | 482 kts | 54° |
| 2026-05-04 15:42 | 43.31736 | 0.68234 | 33938 ft | 482 kts | 54° |
| 2026-05-04 15:42 | 43.35925 | 0.75405 | 33936 ft | 481 kts | 54° |
| 2026-05-04 15:43 | 43.40119 | 0.82577 | 33934 ft | 481 kts | 55° |
| 2026-05-04 15:43 | 43.44298 | 0.89756 | 33931 ft | 481 kts | 55° |
| 2026-05-04 15:44 | 43.48470 | 0.96944 | 33934 ft | 480 kts | 55° |
| 2026-05-04 15:44 | 43.52635 | 1.04131 | 33931 ft | 479 kts | 55° |
| 2026-05-04 15:45 | 43.56788 | 1.11317 | 33937 ft | 479 kts | 55° |
| 2026-05-04 15:45 | 43.60931 | 1.18503 | 33937 ft | 478 kts | 55° |
| 2026-05-04 15:46 | 43.65061 | 1.25690 | 33946 ft | 478 kts | 55° |
| 2026-05-04 15:46 | 43.69169 | 1.32896 | 33941 ft | 477 kts | 56° |
| 2026-05-04 15:47 | 43.73138 | 1.40233 | 33945 ft | 476 kts | 57° |
| 2026-05-04 15:47 | 43.77012 | 1.47635 | 33936 ft | 475 kts | 57° |
| 2026-05-04 15:48 | 43.80905 | 1.55022 | 33935 ft | 475 kts | 57° |
| 2026-05-04 15:48 | 43.86780 | 1.66064 | 33928 ft | 474 kts | 57° |
| 2026-05-04 15:49 | 43.90678 | 1.73413 | 33925 ft | 473 kts | 57° |
| 2026-05-04 15:49 | 43.94555 | 1.80784 | 33924 ft | 472 kts | 57° |
| 2026-05-04 15:50 | 43.98377 | 1.88196 | 33919 ft | 472 kts | 58° |
| 2026-05-04 15:50 | 44.02094 | 1.95706 | 33916 ft | 472 kts | 58° |
| 2026-05-04 15:51 | 44.05788 | 2.03236 | 33915 ft | 472 kts | 58° |
| 2026-05-04 15:51 | 44.09506 | 2.10763 | 33911 ft | 472 kts | 58° |
| 2026-05-04 15:52 | 44.13238 | 2.18279 | 33916 ft | 472 kts | 57° |
| 2026-05-04 15:52 | 44.16969 | 2.25820 | 33921 ft | 473 kts | 57° |
| 2026-05-04 15:53 | 44.20687 | 2.33380 | 33921 ft | 473 kts | 58° |
| 2026-05-04 15:53 | 44.24409 | 2.40970 | 33924 ft | 475 kts | 57° |
| 2026-05-04 15:54 | 44.28135 | 2.48593 | 33920 ft | 475 kts | 57° |
| 2026-05-04 15:54 | 44.31867 | 2.56220 | 33920 ft | 476 kts | 57° |
| 2026-05-04 15:55 | 44.35574 | 2.63819 | 33920 ft | 477 kts | 57° |
| 2026-05-04 15:55 | 44.39304 | 2.71495 | 33927 ft | 478 kts | 57° |
| 2026-05-04 15:56 | 44.43034 | 2.79196 | 33933 ft | 479 kts | 58° |
| 2026-05-04 15:56 | 44.46770 | 2.86913 | 33934 ft | 479 kts | 58° |
| 2026-05-04 15:57 | 44.50496 | 2.94640 | 33935 ft | 479 kts | 58° |
| 2026-05-04 15:57 | 44.54213 | 3.02380 | 33945 ft | 479 kts | 58° |
| 2026-05-04 15:58 | 44.57936 | 3.10151 | 33948 ft | 480 kts | 58° |
| 2026-05-04 15:58 | 44.61620 | 3.17951 | 33949 ft | 480 kts | 60° |
| 2026-05-04 15:59 | 44.64980 | 3.26036 | 33958 ft | 479 kts | 64° |
| 2026-05-04 15:59 | 44.68140 | 3.34271 | 33959 ft | 479 kts | 64° |
| 2026-05-04 16:00 | 44.71341 | 3.42502 | 33964 ft | 480 kts | 63° |
| 2026-05-04 16:00 | 44.74608 | 3.50688 | 33966 ft | 480 kts | 63° |
| 2026-05-04 16:01 | 44.77889 | 3.58885 | 33975 ft | 480 kts | 63° |
| 2026-05-04 16:01 | 44.81153 | 3.67093 | 33973 ft | 480 kts | 63° |
| 2026-05-04 16:02 | 44.84402 | 3.75308 | 33982 ft | 480 kts | 63° |
| 2026-05-04 16:03 | 44.89258 | 3.87672 | 33981 ft | 481 kts | 63° |
| 2026-05-04 16:03 | 44.92495 | 3.95927 | 33984 ft | 481 kts | 63° |
| 2026-05-04 16:04 | 44.95724 | 4.04204 | 33984 ft | 482 kts | 63° |
| 2026-05-04 16:04 | 45.00573 | 4.16650 | 33990 ft | 482 kts | 63° |
| 2026-05-04 16:05 | 45.03783 | 4.24907 | 33993 ft | 483 kts | 63° |
| 2026-05-04 16:06 | 45.08613 | 4.37395 | 33996 ft | 483 kts | 63° |
| 2026-05-04 16:07 | 45.15025 | 4.54087 | 33998 ft | 482 kts | 63° |
| 2026-05-04 16:08 | 45.21404 | 4.70781 | 34016 ft | 481 kts | 63° |
| 2026-05-04 16:09 | 45.28821 | 4.90306 | 34013 ft | 480 kts | 63° |
| 2026-05-04 16:10 | 45.35124 | 5.07022 | 34018 ft | 480 kts | 63° |
| 2026-05-04 16:11 | 45.41408 | 5.23763 | 34017 ft | 479 kts | 63° |
| 2026-05-04 16:12 | 45.51516 | 5.47346 | 35380 ft | 456 kts | 41° |
| 2026-05-04 16:13 | 45.56356 | 5.53455 | 34195 ft | 470 kts | 40° |
| 2026-05-04 16:13 | 45.61286 | 5.59663 | 34046 ft | 474 kts | 40° |
| 2026-05-04 16:14 | 45.71103 | 5.72258 | 34054 ft | 474 kts | 41° |
| 2026-05-04 16:16 | 45.83331 | 5.88014 | 34056 ft | 472 kts | 41° |
| 2026-05-04 16:17 | 45.95526 | 6.03776 | 34052 ft | 472 kts | 41° |
| 2026-05-04 16:18 | 46.05226 | 6.16374 | 34053 ft | 471 kts | 41° |
| 2026-05-04 16:19 | 46.11718 | 6.26926 | 34050 ft | 471 kts | 55° |
| 2026-05-04 16:19 | 46.15475 | 6.34647 | 34045 ft | 471 kts | 55° |
| 2026-05-04 16:20 | 46.24884 | 6.53960 | 34046 ft | 470 kts | 55° |
| 2026-05-04 16:22 | 46.34218 | 6.73306 | 34045 ft | 469 kts | 55° |
| 2026-05-04 16:23 | 46.45404 | 6.96636 | 34478 ft | 474 kts | 55° |
| 2026-05-04 16:24 | 46.52871 | 7.12358 | 35567 ft | 472 kts | 55° |
| 2026-05-04 16:25 | 46.56807 | 7.19966 | 36022 ft | 471 kts | 44° |
| 2026-05-04 16:26 | 46.67777 | 7.29731 | 36047 ft | 464 kts | 22° |
| 2026-05-04 16:26 | 46.76557 | 7.35645 | 36034 ft | 463 kts | 22° |
| 2026-05-04 16:28 | 46.89415 | 7.49401 | 36025 ft | 467 kts | 51° |
| 2026-05-04 16:29 | 47.03536 | 7.75460 | 36039 ft | 466 kts | 51° |
| 2026-05-04 16:31 | 47.13542 | 7.94157 | 36012 ft | 465 kts | 56° |
| 2026-05-04 16:32 | 47.23851 | 8.18285 | 36017 ft | 464 kts | 58° |
| 2026-05-04 16:33 | 47.30410 | 8.34504 | 35991 ft | 462 kts | 69° |
| 2026-05-04 16:34 | 47.33465 | 8.47928 | 35996 ft | 461 kts | 73° |
| 2026-05-04 16:35 | 47.39375 | 8.74877 | 36000 ft | 460 kts | 73° |
| 2026-05-04 16:36 | 47.42307 | 8.88348 | 35994 ft | 459 kts | 73° |
| 2026-05-04 16:37 | 47.45229 | 9.01818 | 35982 ft | 459 kts | 73° |
| 2026-05-04 16:38 | 47.49068 | 9.19749 | 35967 ft | 458 kts | 73° |
| 2026-05-04 16:39 | 47.51921 | 9.33179 | 35669 ft | 458 kts | 73° |
| 2026-05-04 16:39 | 47.53816 | 9.42105 | 34758 ft | 452 kts | 73° |
| 2026-05-04 16:40 | 47.55680 | 9.50950 | 33625 ft | 448 kts | 73° |
| 2026-05-04 16:40 | 47.57524 | 9.59763 | 32552 ft | 441 kts | 73° |
| 2026-05-04 16:41 | 47.58512 | 9.68534 | 31529 ft | 431 kts | 92° |
| 2026-05-04 16:41 | 47.58003 | 9.81663 | 30107 ft | 421 kts | 95° |
| 2026-05-04 16:42 | 47.57495 | 9.94464 | 28726 ft | 408 kts | 95° |
| 2026-05-04 16:43 | 47.57150 | 10.02757 | 27894 ft | 400 kts | 95° |
| 2026-05-04 16:43 | 47.56803 | 10.10907 | 27043 ft | 393 kts | 95° |
| 2026-05-04 16:43 | 47.56625 | 10.14986 | 26603 ft | 390 kts | 95° |
| 2026-05-04 16:44 | 47.55930 | 10.30746 | 24865 ft | 381 kts | 96° |
| 2026-05-04 16:45 | 47.55578 | 10.38566 | 23923 ft | 380 kts | 96° |
| 2026-05-04 16:46 | 47.55037 | 10.50264 | 22451 ft | 375 kts | 94° |
| 2026-05-04 16:46 | 47.55894 | 10.57764 | 21556 ft | 375 kts | 69° |
| 2026-05-04 16:47 | 47.58430 | 10.64368 | 20921 ft | 365 kts | 59° |
| 2026-05-04 16:47 | 47.61059 | 10.70907 | 19773 ft | 372 kts | 60° |
| 2026-05-04 16:48 | 47.64566 | 10.79736 | 18677 ft | 368 kts | 60° |
| 2026-05-04 16:48 | 47.66261 | 10.83990 | 18420 ft | 357 kts | 60° |
| 2026-05-04 16:49 | 47.68543 | 10.89086 | 17812 ft | 353 kts | 49° |
| 2026-05-04 16:49 | 47.72248 | 10.93786 | 17039 ft | 349 kts | 39° |
| 2026-05-04 16:50 | 47.76019 | 10.98256 | 16304 ft | 345 kts | 39° |
| 2026-05-04 16:50 | 47.79743 | 11.02665 | 15598 ft | 340 kts | 36° |
| 2026-05-04 16:51 | 47.84113 | 11.05171 | 14896 ft | 337 kts | 14° |
| 2026-05-04 16:51 | 47.86377 | 11.06065 | 14532 ft | 336 kts | 14° |
| 2026-05-04 16:51 | 47.90895 | 11.07810 | 13822 ft | 335 kts | 14° |
| 2026-05-04 16:52 | 47.95362 | 11.09518 | 13020 ft | 332 kts | 14° |
| 2026-05-04 16:52 | 47.97594 | 11.10371 | 12657 ft | 328 kts | 14° |
| 2026-05-04 16:53 | 48.01972 | 11.12049 | 11886 ft | 322 kts | 14° |
| 2026-05-04 16:53 | 48.08438 | 11.14533 | 10770 ft | 317 kts | 14° |
| 2026-05-04 16:54 | 48.10573 | 11.15359 | 10413 ft | 317 kts | 14° |
| 2026-05-04 16:55 | 48.18923 | 11.18717 | 7967 ft | 301 kts | 24° |
| 2026-05-04 16:55 | 48.21849 | 11.22924 | 6750 ft | 292 kts | 53° |
| 2026-05-04 16:56 | 48.24158 | 11.27824 | 5590 ft | 281 kts | 54° |
| 2026-05-04 16:56 | 48.27395 | 11.34933 | 4442 ft | 273 kts | 54° |
| 2026-05-04 16:57 | 48.28445 | 11.37272 | 4120 ft | 268 kts | 54° |
| 2026-05-04 16:57 | 48.30424 | 11.41694 | 4003 ft | 240 kts | 54° |
| 2026-05-04 16:58 | 48.31931 | 11.48065 | 4037 ft | 200 kts | 82° |
| 2026-05-04 16:58 | 48.32094 | 11.50100 | 3999 ft | 193 kts | 82° |
| 2026-05-04 16:59 | 48.32411 | 11.54070 | 4007 ft | 189 kts | 82° |
| 2026-05-04 17:00 | 48.32957 | 11.60958 | 3325 ft | 156 kts | 81° |
| 2026-05-04 17:00 | 48.33339 | 11.65806 | 2731 ft | 155 kts | 82° |
| 2026-05-04 17:01 | 48.33591 | 11.69018 | 2330 ft | 153 kts | 81° |
| 2026-05-04 17:01 | 48.33834 | 11.72138 | 1935 ft | 148 kts | 81° |
| 2026-05-04 17:02 | 48.34077 | 11.75177 | 1535 ft | 145 kts | 81° |
| 2026-05-04 17:02 | 48.34347 | 11.78312 | 2623 ft | 155 kts | 81° |
| 2026-05-04 17:03 | 48.34479 | 11.79919 | 3306 ft | 155 kts | 82° |
| 2026-05-04 17:03 | 48.34622 | 11.81607 | 3559 ft | 169 kts | 82° |
| 2026-05-04 17:03 | 48.33955 | 11.85066 | 4032 ft | 193 kts | 142° |
| 2026-05-04 17:04 | 48.31366 | 11.85083 | 4559 ft | 209 kts | 218° |
| 2026-05-04 17:04 | 48.29394 | 11.81568 | 4964 ft | 235 kts | 234° |
| 2026-05-04 17:05 | 48.27417 | 11.77547 | 5008 ft | 241 kts | 234° |
| 2026-05-04 17:05 | 48.25455 | 11.73484 | 4996 ft | 240 kts | 242° |
| 2026-05-04 17:06 | 48.24743 | 11.68665 | 5006 ft | 238 kts | 264° |
| 2026-05-04 17:06 | 48.24550 | 11.66197 | 5006 ft | 238 kts | 264° |
| 2026-05-04 17:07 | 48.24170 | 11.61287 | 5006 ft | 237 kts | 264° |
| 2026-05-04 17:07 | 48.24045 | 11.59662 | 4997 ft | 237 kts | 264° |
| 2026-05-04 17:07 | 48.23790 | 11.56376 | 5008 ft | 237 kts | 264° |
| 2026-05-04 17:07 | 48.23596 | 11.53920 | 5008 ft | 237 kts | 264° |
| 2026-05-04 17:08 | 48.23399 | 11.51469 | 5010 ft | 236 kts | 264° |
| 2026-05-04 17:08 | 48.23003 | 11.46583 | 5010 ft | 236 kts | 264° |
| 2026-05-04 17:08 | 48.22925 | 11.44138 | 5008 ft | 234 kts | 281° |
| 2026-05-04 17:09 | 48.23601 | 11.41962 | 5011 ft | 232 kts | 313° |
| 2026-05-04 17:09 | 48.24919 | 11.40709 | 5000 ft | 221 kts | 345° |
| 2026-05-04 17:09 | 48.26404 | 11.40350 | 5014 ft | 215 kts | 353° |
| 2026-05-04 17:10 | 48.29200 | 11.41454 | 4838 ft | 221 kts | 45° |
| 2026-05-04 17:10 | 48.31783 | 11.47086 | 4104 ft | 218 kts | 71° |
| 2026-05-04 17:11 | 48.32021 | 11.49301 | 4023 ft | 206 kts | 82° |
| 2026-05-04 17:11 | 48.32190 | 11.51376 | 3996 ft | 196 kts | 81° |
| 2026-05-04 17:11 | 48.32511 | 11.55332 | 3947 ft | 191 kts | 82° |
| 2026-05-04 17:12 | 48.32667 | 11.57300 | 3774 ft | 189 kts | 82° |
| 2026-05-04 17:12 | 48.32960 | 11.61007 | 3335 ft | 165 kts | 82° |
| 2026-05-04 17:13 | 48.33346 | 11.65901 | 2724 ft | 154 kts | 82° |
| 2026-05-04 17:14 | 48.33718 | 11.70646 | 2131 ft | 150 kts | 81° |
| 2026-05-04 17:14 | 48.33840 | 11.72189 | 1933 ft | 148 kts | 81° |
| 2026-05-04 17:14 | 48.34074 | 11.75227 | 1520 ft | 144 kts | 82° |
| 2026-05-04 17:15 | 48.34182 | 11.76597 | 1485 ft | 113 kts | 83° |
| 2026-05-04 17:15 | 48.34397 | 11.77703 | 1482 ft | 20 kts | 46° |
| 2026-05-04 17:16 | 48.34467 | 11.77846 | 1485 ft | 0 kts | 53° |
| 2026-05-04 17:16 | 48.34494 | 11.77887 | 1483 ft | 8 kts | 38° |
| 2026-05-04 17:17 | 48.34541 | 11.77916 | 1482 ft | 7 kts | 13° |
| 2026-05-04 17:17 | 48.34643 | 11.77906 | 1483 ft | 5 kts | 354° |
| 2026-05-04 17:18 | 48.34696 | 11.77897 | 1485 ft | 10 kts | 353° |
| 2026-05-04 17:18 | 48.34789 | 11.77879 | 1485 ft | 0 kts | 353° |
| 2026-05-04 17:20 | 48.34834 | 11.77870 | 1482 ft | 8 kts | 348° |
| 2026-05-04 17:20 | 48.34888 | 11.77838 | 1477 ft | 8 kts | 343° |
| 2026-05-04 17:21 | 48.35005 | 11.77816 | 1485 ft | 12 kts | 353° |
| 2026-05-04 17:21 | 48.35200 | 11.77781 | 1485 ft | 9 kts | 352° |
| 2026-05-04 17:22 | 48.35223 | 11.77716 | 1485 ft | 7 kts | 274° |
| 2026-05-04 17:22 | 48.35221 | 11.77686 | 1485 ft | 0 kts | 263° |